D/T METAR WX W/DIR W/SPE G/SPE TEMP DEWP
23/05/19 13:30 EIDW 231230Z 30004KT 120V010 9999 FEW019 BKN048 15/10 Q1016 NOSIG WNW (300°) 4.6mph 15°C 10°C
23/05/19 13:00 EIDW 231200Z 31005KT 240V020 9999 FEW020 BKN048 BKN120 14/10 Q1016 NOSIG NW (310°) 5.8mph 14°C 10°C
23/05/19 12:30 EIDW 231130Z 30005KT 260V340 9999 FEW020 BKN048 BKN120 14/10 Q1016 NOSIG WNW (300°) 5.8mph 14°C 10°C
23/05/19 12:00 EIDW 231100Z 31006KT 9999 FEW020 BKN048 BKN120 14/10 Q1016 NOSIG NW (310°) 6.9mph 14°C 10°C
23/05/19 11:30 EIDW 231030Z 29007KT 9999 FEW020 BKN048 13/10 Q1016 NOSIG WNW (290°) 8.1mph 13°C 10°C
23/05/19 11:00 EIDW 231000Z 28008KT 9999 FEW020 BKN048 13/10 Q1016 NOSIG W (280°) 9.2mph 13°C 10°C
23/05/19 10:30 EIDW 230930Z 27009KT 9999 FEW020 BKN048 12/10 Q1016 NOSIG W (270°) 10.4mph 12°C 10°C
23/05/19 10:00 EIDW 230900Z 27007KT 9999 FEW020 BKN048 12/09 Q1016 NOSIG W (270°) 8.1mph 12°C 9°C
23/05/19 09:30 EIDW 230830Z 28007KT 9999 FEW018 BKN048 12/09 Q1016 NOSIG W (280°) 8.1mph 12°C 9°C
23/05/19 09:00 EIDW 230800Z 26005KT 210V290 9999 FEW018 BKN048 12/09 Q1016 NOSIG W (260°) 5.8mph 12°C 9°C
23/05/19 08:30 EIDW 230730Z 25005KT 210V280 9999 FEW018 BKN048 12/09 Q1016 NOSIG WSW (250°) 5.8mph 12°C 9°C
23/05/19 08:00 EIDW 230700Z 27005KT 240V300 9999 FEW018 BKN048 12/09 Q1016 NOSIG W (270°) 5.8mph 12°C 9°C
23/05/19 07:30 EIDW 230630Z VRB01KT 9999 FEW018 BKN048 12/09 Q1016 NOSIG N (0°) 1.2mph 12°C 9°C
23/05/19 07:00 EIDW 230600Z VRB01KT 9999 FEW018 BKN045 BKN150 11/09 Q1016 NOSIG N (0°) 1.2mph 11°C 9°C
23/05/19 06:30 EIDW 230530Z VRB02KT 9999 FEW018 BKN045 BKN150 11/09 Q1016 NOSIG N (0°) 2.3mph 11°C 9°C
23/05/19 06:00 EIDW 230500Z VRB02KT 9999 FEW018 BKN050 11/09 Q1015 NOSIG N (0°) 2.3mph 11°C 9°C
23/05/19 05:30 EIDW 230430Z 00000KT 9999 FEW018 BKN050 10/09 Q1016 NOSIG N (0°) 10°C 9°C
23/05/19 05:00 EIDW 230400Z VRB03KT 9999 FEW018 BKN050 11/09 Q1016 NOSIG N (0°) 3.5mph 11°C 9°C
23/05/19 04:30 EIDW 230330Z 34002KT 9999 FEW018 BKN050 10/09 Q1016 NOSIG NNW (340°) 2.3mph 10°C 9°C
23/05/19 04:00 EIDW 230300Z 01002KT 9999 FEW018 BKN050 10/09 Q1016 NOSIG N (10°) 2.3mph 10°C 9°C
23/05/19 03:30 EIDW 230230Z 01002KT 9999 FEW018 BKN050 10/09 Q1016 NOSIG N (10°) 2.3mph 10°C 9°C
23/05/19 03:00 EIDW 230200Z 35003KT 9999 FEW016 BKN050 10/09 Q1016 NOSIG N (350°) 3.5mph 10°C 9°C
23/05/19 02:30 EIDW 230130Z 35003KT 9999 FEW016 BKN050 10/09 Q1016 NOSIG N (350°) 3.5mph 10°C 9°C
23/05/19 02:00 EIDW 230100Z 33002KT 9999 FEW016 BKN050 BKN150 10/09 Q1016 NOSIG NNW (330°) 2.3mph 10°C 9°C
23/05/19 01:30 EIDW 230030Z 34002KT 9999 FEW016 BKN050 BKN150 10/09 Q1016 NOSIG NNW (340°) 2.3mph 10°C 9°C
23/05/19 01:00 EIDW 230000Z 34003KT 9999 FEW016 BKN050 BKN150 10/08 Q1016 NOSIG NNW (340°) 3.5mph 10°C 8°C
23/05/19 00:30 EIDW 222330Z 34003KT 9999 FEW016 BKN050 BKN150 10/08 Q1017 NOSIG NNW (340°) 3.5mph 10°C 8°C
23/05/19 00:00 EIDW 222300Z VRB01KT 9999 FEW016 BKN050 BKN150 09/07 Q1017 NOSIG N (0°) 1.2mph 9°C 7°C
22/05/19 23:30 EIDW 222230Z 36001KT 9999 FEW016 BKN050 09/07 Q1017 NOSIG N (360°) 1.2mph 9°C 7°C
22/05/19 23:00 EIDW 222200Z 14003KT 9999 FEW016 SCT050 09/07 Q1017 NOSIG SE (140°) 3.5mph 9°C 7°C
22/05/19 22:30 EIDW 222130Z 13004KT 110V170 9999 FEW016 SCT060 BKN120 10/08 Q1017 NOSIG SE (130°) 4.6mph 10°C 8°C
22/05/19 22:00 EIDW 222100Z 14005KT 9999 FEW020 BKN120 BKN160 11/08 Q1017 NOSIG SE (140°) 5.8mph 11°C 8°C
22/05/19 21:30 EIDW 222030Z 13004KT 080V170 9999 FEW024 BKN120 BKN160 11/08 Q1017 NOSIG SE (130°) 4.6mph 11°C 8°C
22/05/19 21:00 EIDW 222000Z 13006KT 100V170 9999 FEW024 SCT120 BKN160 11/08 Q1017 NOSIG SE (130°) 6.9mph 11°C 8°C
22/05/19 20:30 EIDW 221930Z 13006KT 100V160 9999 FEW024 SCT110 BKN140 12/08 Q1017 NOSIG SE (130°) 6.9mph 12°C 8°C
22/05/19 20:00 EIDW 221900Z 14006KT 100V170 9999 FEW024 SCT110 BKN140 12/08 Q1018 NOSIG SE (140°) 6.9mph 12°C 8°C
22/05/19 19:30 EIDW 221830Z 13006KT 090V170 9999 FEW024 SCT110 BKN140 12/08 Q1018 NOSIG SE (130°) 6.9mph 12°C 8°C
22/05/19 19:00 EIDW 221800Z 13006KT 080V170 9999 FEW024 SCT080 BKN140 13/08 Q1018 NOSIG SE (130°) 6.9mph 13°C 8°C
22/05/19 18:30 EIDW 221730Z 12007KT 090V150 9999 FEW024 SCT110 BKN130 13/08 Q1018 NOSIG ESE (120°) 8.1mph 13°C 8°C
22/05/19 18:00 EIDW 221700Z 13005KT 100V170 9999 FEW024 SCT110 BKN130 13/08 Q1018 NOSIG SE (130°) 5.8mph 13°C 8°C
22/05/19 17:30 EIDW 221630Z 12007KT 090V150 9999 FEW022 BKN120 BKN250 13/08 Q1018 NOSIG ESE (120°) 8.1mph 13°C 8°C
22/05/19 17:00 EIDW 221600Z 12008KT 090V180 9999 FEW022 BKN120 BKN250 13/08 Q1018 NOSIG ESE (120°) 9.2mph 13°C 8°C
22/05/19 16:30 EIDW 221530Z 12006KT 090V160 9999 FEW022 BKN120 BKN250 13/08 Q1019 NOSIG ESE (120°) 6.9mph 13°C 8°C
22/05/19 16:00 EIDW 221500Z 11008KT 080V150 9999 FEW022 SCT130 BKN250 13/08 Q1018 NOSIG ESE (110°) 9.2mph 13°C 8°C
22/05/19 15:30 EIDW 221430Z 09010KT 9999 FEW022 SCT110 BKN250 13/08 Q1019 NOSIG E (90°) 11.5mph 13°C 8°C
22/05/19 15:00 EIDW 221400Z 09010KT 9999 FEW022 SCT110 BKN250 13/08 Q1019 NOSIG E (90°) 11.5mph 13°C 8°C
22/05/19 14:30 EIDW 221330Z 09008KT 9999 FEW022 SCT120 BKN250 14/09 Q1019 NOSIG E (90°) 9.2mph 14°C 9°C
22/05/19 14:00 EIDW 221300Z 11007KT 070V140 9999 FEW022 SCT120 BKN250 14/08 Q1019 NOSIG ESE (110°) 8.1mph 14°C 8°C